createdAt,value
2019-02-19T00:00:53.959Z,33.38
2019-02-19T00:15:53.418Z,31.12
2019-02-19T00:30:51.572Z,34.10
2019-02-19T00:45:51.303Z,32.78
2019-02-19T01:00:52.833Z,34.70
2019-02-19T01:15:53.683Z,33.88
2019-02-19T01:30:51.609Z,30.27
2019-02-19T01:45:51.484Z,27.93
2019-02-19T02:00:53.407Z,37.05
2019-02-19T02:15:50.741Z,29.75
2019-02-19T02:30:51.712Z,27.10
2019-02-19T02:45:53.702Z,30.43
2019-02-19T03:00:51.518Z,32.28
2019-02-19T03:15:50.956Z,32.33
2019-02-19T03:30:50.882Z,28.77
2019-02-19T03:45:51.237Z,27.73
2019-02-19T04:00:51.280Z,31.55
2019-02-19T04:15:51.174Z,41.70
2019-02-19T04:30:52.784Z,42.20
2019-02-19T04:45:59.458Z,48.23
2019-02-19T05:00:52.698Z,46.35
2019-02-19T05:15:50.668Z,40.83
2019-02-19T05:30:50.593Z,47.03
2019-02-19T05:45:51.055Z,56.50
2019-02-19T06:00:51.056Z,44.35
2019-02-19T06:15:50.901Z,50.40
2019-02-19T06:30:50.878Z,45.63
2019-02-19T06:45:51.265Z,56.00
2019-02-19T07:00:51.217Z,57.35
2019-02-19T07:15:51.237Z,64.58
2019-02-19T07:30:51.505Z,74.00
2019-02-19T07:45:52.336Z,80.45
2019-02-19T08:00:51.304Z,90.53
2019-02-19T08:15:51.277Z,88.58
2019-02-19T08:30:51.185Z,89.30
2019-02-19T08:45:51.559Z,73.72
2019-02-19T09:00:50.712Z,78.33
2019-02-19T09:15:49.551Z,74.35
2019-02-19T09:30:49.528Z,73.17
2019-02-19T09:45:51.291Z,67.27
2019-02-19T10:00:51.321Z,51.20
2019-02-19T10:15:51.217Z,57.27
2019-02-19T10:30:51.068Z,53.63
2019-02-19T10:45:50.500Z,61.08
2019-02-19T11:00:50.517Z,59.93
2019-02-19T11:15:51.425Z,56.73
2019-02-19T11:30:51.310Z,42.98
2019-02-19T11:45:49.654Z,41.98
2019-02-19T12:00:49.597Z,21.75
2019-02-19T12:15:49.494Z,22.67
2019-02-19T12:30:49.466Z,25.17
2019-02-19T12:45:51.034Z,23.90
2019-02-19T13:00:50.808Z,19.87
2019-02-19T13:15:50.750Z,20.82
2019-02-19T13:30:52.668Z,19.98
2019-02-19T13:45:51.145Z,20.37
2019-02-19T14:00:52.894Z,22.45
2019-02-19T14:15:56.902Z,18.67
2019-02-19T14:30:57.593Z,15.65
2019-02-19T14:45:56.249Z,19.55
2019-02-19T15:00:56.140Z,25.35
2019-02-19T15:15:58.115Z,17.30
2019-02-19T16:00:57.464Z,16.12
2019-02-19T16:15:56.483Z,17.98
2019-02-19T17:00:57.880Z,18.40
2019-02-19T17:30:58.743Z,32.28
2019-02-19T17:45:59.442Z,33.33
2019-02-19T18:30:52.727Z,72.42
2019-02-19T18:45:52.332Z,93.45
2019-02-19T19:00:51.302Z,78.22
2019-02-19T19:15:53.338Z,72.45
2019-02-19T19:30:54.241Z,82.97
2019-02-19T19:45:56.267Z,95.57
2019-02-19T20:00:57.762Z,92.25
2019-02-19T20:15:53.241Z,89.32
2019-02-19T20:30:53.851Z,65.40
2019-02-19T20:45:54.201Z,76.25
2019-02-19T21:00:53.313Z,74.20
2019-02-19T21:15:51.437Z,70.45
2019-02-19T21:30:53.517Z,89.25
2019-02-19T21:45:51.238Z,91.67
2019-02-19T22:00:51.616Z,69.20
2019-02-19T22:15:53.277Z,62.00
2019-02-19T22:30:52.568Z,55.48
2019-02-19T22:45:51.127Z,59.88
2019-02-19T23:15:53.444Z,42.93
2019-02-19T23:30:51.431Z,41.60
2019-02-19T23:45:52.417Z,34.38
